メインページ
METAR-TAF:

METAR-TAF

空港 :

Golden, ブリティッシュコロンビア州, カナダ

緯度: 51-18N, 経度: 116-59W, 海抜: 785m

現時点の気象観測

当レポートは5時間28分前の00:00(UTC)に作成
南東の風 2kt
気温 1°C
湿度 93%
気圧 1015 hPa
視程: 16.1km
高度900ftの雲はほとんどない
高度1500ftの雲は散在している
高度5000ftの千切れ雲あり
高度8500ftの曇り

METAR: CYGE 160000Z 13002KT 10SM FEW009 SCT015 BKN050 OVC085 01/00 A2997 RMK ST1SC3SC3AC1 LAST STFD OBS/NEXT 161400Z SLP182

時間: 22:28 (05:28 UTC)


TAF: 見つかりません

4,000以上の空港の気象観測と天気予報(METAR報とTAF報)

利用可能な観測所は地図上に黄色い丸と赤い丸で示す。

丸の上にカーソルを重ねると観測所名を参照できる。

次にクリックすると気象観測と天気予報を参照できる。

マップの切り替え:黒色「×」印の緑ボタンをクリックして拡大、「-」印の緑ボタンをクリックして縮小、緑色の三角印をクリックして隣りの地図に切り替え


METAR-TAF: